Forside
METAR-TAF:

METAR-TAF

Lufthavne :

Kostanay, Kasakhstan

Breddekreds: 53-12-23N, længdekreds: 063-33-03E, højde: 182 m

Aktuelle vejr

Denne rapport blev lavet for 33 minutter siden, kl. 04:00 UTC
Vind 4 kt fra syd
Temperatur -14°C
Fugtighed 85%
Tryk 1037 hPa
Sigt 10 km eller mere
ingen skyer under 1500m og ingen cumulonimbus

METAR: UAUU 150400Z 19002MPS CAVOK M14/M16 Q1037 R33/CLRD60 NOSIG RMK QFE761/1015

Tid: 10:33 (04:33 UTC)

Vejrudsigter

Denne rapport blev lavet for 2 timer og 33 minutter siden, kl. 02:00 UTC
Foreløbig gælder fra 15 på 03 UTC til 15 på 12 UTC
Vind 10 kt fra sydsydvest
Sigt 10 km eller mere
Midlertidig
fra 15 på 06 UTC til 15 på 12 UTC
Vind 16 kt fra syd

TAF: UAUU 150200Z 1503/1512 20005MPS 9999 NSC TEMPO 1506/1512 19008MPS

Vejrobservationer og prognoser fra mere end 4000 lufthavne (METAR og TAF).

De gule og røde prikker repræsenterer de meteorologiske stationer.

Flyt musen over at se navnet på stationen.

Så klik over at se vejr observationer og prognoser.

At skifte det kort: Klik på de grønne knapper med et sort kors for at zoome ind; på den grønne knap med en bindestreg for at zoome ud; eller på de grønne pile for tilstødende kort.


METAR-TAF: